Rouyn Noranda Airport
CYUY : now visible

Airfield :











YOU CAN JOIN US ON...

 
LOGIN :

Register | Disclaimer

   EN    FR    IT 

 









Legend :    VFR   Marginal VFR   IFR   Intensive IFR   Very Intensive IFR
Visi :
Ceiling :
>= 8 km
>= 3000ft
5 to 8 km
1000 to 3000 ft
1500m to 5 km
500 to 1000 ft
800 to 1500m
200 to 500 ft
< 800m
< 200 ft
Symbols :   Thunderstorms  Fog  Heavy snow  Heavy precipitations  Wind > 20 kt







- Airport Elevation : 988 ft
- IATA code : YUY


CYUY - Rouyn Noranda

CURRENT METAR :
  • 181900Z 17010G22KT 15SM FEW043 SCT120 BKN160 BKN240 27/16 A2981 RMK CF1AC3AC2CI2 CF TR SLP097 DENSITY ALT 2800FT

EXPIRED METARs :
  • 181800Z 21011G21KT 15SM FEW049 FEW070 SCT130 BKN220 27/15 A2985 RMK SC1AC1AC2CI3 SLP110 DENSITY ALT 2700FT
  • 181700Z 20011G18KT 15SM FEW050 BKN140 BKN160 BKN240 26/13 A2987 RMK SC2AC3AC1CI1 SLP117 DENSITY ALT 2600FT
  • 181600Z 17011G18KT 130V190 15SM FEW053 FEW100 SCT140 BKN240 25/11 A2989 RMK CF1ACC1ACC1CI2 SLP123 DENSITY ALT 2500FT

TAF TAF CYUY
Valid from the 18 at 18:00 until the 19 at 06:00 UTC


181741Z 1818/1906 20010G20KT P6SM FEW050 BKN120 BKN240
FM182000 20012G22KT P6SM BKN050 BKN120
TEMPO 1820/1902 SCT050 BKN120
FM190200 22012G22KT 6SM -SHRA BR BKN020 OVC040
PROB40 1902/1905 VRB20G35KT 1SM TSRA BR BKN008 OVC030CB
FM190500 23012KT P6SM -SHRA BKN007 OVC020 RMK NXT FCST BY 190000Z
CZUL FIR / North America



MET'MAP, your aeronautical weather chart ! - Copyright ORBIFLY December 2007 - Disclaimer

ORBIFLY MET'MAP TEAM :

Programming & Development : Alexandra Zaïnal
Concept & Development : Baudouin d'Aumeries
Co-Development & Prog : Marc-Olivier Méhu
Technical & hardware support : Manuel Goepfert

Contact : metmap@orbifly.com




SOURCES & CREDITS :

   NOAA       Earth
Advisory